Time;durP1;ratioP1;P1;durP2;ratioP2;P2;SDS_P1;SDS_P2;PMS_P1;PMS_P2;Temp;Humidity;BMP_temperature;BMP_pressure;BME280_temperature;BME280_humidity;BME280_pressure;Samples;Min_cycle;Max_cycle;Signal;HPM_P1;HPM_P2
2021/12/15 00:01:45;;;;;;;51.95;32.45;;;;;;;7.79;90.34;102866.63;5022896;28;20091;-77
2021/12/15 00:04:10;;;;;;;49.50;32.67;;;;;;;7.79;90.72;102856.19;5021934;28;20047;-77
2021/12/15 00:06:37;;;;;;;50.50;33.00;;;;;;;7.79;91.04;102856.19;5017909;28;20025;-78
2021/12/15 00:09:12;;;;;;;52.97;34.47;;;;;;;7.78;91.20;102864.84;5018473;28;20477;-77
2021/12/15 00:11:40;;;;;;;51.40;33.35;;;;;;;7.77;91.11;102861.38;5035358;28;20033;-77
2021/12/15 00:14:16;;;;;;;54.70;33.63;;;;;;;7.76;90.99;102856.97;5035129;28;20083;-77
2021/12/15 00:16:43;;;;;;;49.83;33.28;;;;;;;7.73;91.00;102851.66;5043457;28;20016;-77
2021/12/15 00:19:09;;;;;;;49.03;33.17;;;;;;;7.74;91.70;102853.44;5024248;28;20044;-77
2021/12/15 00:21:35;;;;;;;48.45;32.90;;;;;;;7.72;90.94;102849.00;5018801;28;20040;-79
2021/12/15 00:24:03;;;;;;;49.30;33.08;;;;;;;7.72;91.56;102849.00;5035434;28;20037;-78
2021/12/15 00:26:29;;;;;;;49.65;33.78;;;;;;;7.69;91.43;102847.19;5033982;28;20040;-77
2021/12/15 00:28:54;;;;;;;52.25;33.30;;;;;;;7.68;91.68;102845.41;5030017;28;20389;-77
2021/12/15 00:31:20;;;;;;;51.50;32.78;;;;;;;7.68;91.45;102852.34;5032812;28;20033;-77
2021/12/15 00:33:46;;;;;;;52.05;32.28;;;;;;;7.66;91.34;102844.47;5035625;28;20354;-76
2021/12/15 00:36:14;;;;;;;48.72;32.83;;;;;;;7.67;92.05;102854.09;5002301;28;20041;-77
2021/12/15 00:38:40;;;;;;;50.25;32.53;;;;;;;7.66;91.89;102849.69;5018310;28;20032;-77
2021/12/15 00:41:06;;;;;;;49.25;32.97;;;;;;;7.67;91.65;102850.56;5034451;28;20120;-76
2021/12/15 00:43:33;;;;;;;50.97;32.70;;;;;;;7.67;91.66;102847.97;5017390;28;20195;-77
2021/12/15 00:45:59;;;;;;;55.13;34.60;;;;;;;7.67;91.52;102847.97;5033028;28;20028;-77
2021/12/15 00:48:26;;;;;;;51.65;33.55;;;;;;;7.67;91.43;102846.25;5017938;28;20075;-78
2021/12/15 00:50:51;;;;;;;49.70;33.58;;;;;;;7.67;91.93;102845.34;5017379;28;20131;-78
2021/12/15 00:53:17;;;;;;;51.22;34.75;;;;;;;7.65;92.16;102845.31;5033975;28;20131;-79
2021/12/15 00:55:43;;;;;;;48.55;33.58;;;;;;;7.66;91.89;102841.88;5033998;28;20036;-76
2021/12/15 00:58:11;;;;;;;50.88;34.65;;;;;;;7.65;92.04;102836.59;5034061;28;20060;-78
2021/12/15 01:00:44;;;;;;;58.20;35.63;;;;;;;7.65;91.80;102842.69;5032212;28;20556;-77
2021/12/15 01:03:10;;;;;;;58.60;35.20;;;;;;;7.65;91.53;102847.91;5034938;28;20032;-77
2021/12/15 01:05:39;;;;;;;57.95;36.08;;;;;;;7.65;91.70;102845.31;5020655;28;20029;-76
2021/12/15 01:08:10;;;;;;;54.67;35.35;;;;;;;7.66;91.92;102848.78;5017777;28;20032;-77
2021/12/15 01:21:32;;;;;;;53.22;35.40;;;;;;;7.65;91.81;102855.75;5053679;28;20102;-91
2021/12/15 01:23:57;;;;;;;56.55;35.72;;;;;;;7.62;92.11;102853.03;5019417;28;20473;-89
2021/12/15 01:26:23;;;;;;;56.67;34.78;;;;;;;7.63;91.78;102855.69;5019047;28;20040;-91
2021/12/15 01:35:39;;;;;;;48.60;30.45;;;;;;;7.62;91.95;102858.25;5054380;28;20071;-88
2021/12/15 01:38:05;;;;;;;48.90;32.17;;;;;;;7.62;92.35;102859.13;5035832;28;20032;-88
2021/12/15 01:40:37;;;;;;;53.17;33.83;;;;;;;7.61;92.11;102854.75;5017006;28;20507;-89
2021/12/15 01:43:33;;;;;;;56.13;35.40;;;;;;;7.63;92.01;102866.13;5047480;28;20128;-89
2021/12/15 01:49:49;;;;;;;49.92;31.45;;;;;;;7.61;91.80;102862.59;5033982;28;20397;-89
2021/12/15 01:52:17;;;;;;;54.35;32.47;;;;;;;7.60;92.08;102852.97;5017546;28;20017;-90
2021/12/15 01:54:45;;;;;;;50.47;33.33;;;;;;;7.61;91.92;102856.47;5033889;28;20111;-89
2021/12/15 01:57:12;;;;;;;51.50;32.85;;;;;;;7.58;91.66;102857.25;5032344;28;20032;-87
2021/12/15 01:59:45;;;;;;;48.20;31.40;;;;;;;7.59;91.87;102861.63;5027911;28;20060;-88
2021/12/15 02:02:12;;;;;;;50.88;34.22;;;;;;;7.60;92.21;102866.03;5034593;28;20029;-88
2021/12/15 02:04:38;;;;;;;54.67;31.38;;;;;;;7.59;92.30;102864.25;5034865;28;20039;-87
2021/12/15 02:07:08;;;;;;;49.88;31.30;;;;;;;7.60;91.60;102868.63;5019526;28;20083;-89
2021/12/15 02:12:19;;;;;;;46.97;30.90;;;;;;;7.60;92.30;102872.94;5036747;28;20040;-88
2021/12/15 02:14:49;;;;;;;53.85;32.40;;;;;;;7.60;92.19;102871.25;5035084;28;20091;-86
2021/12/15 02:17:15;;;;;;;;;;;;;;;7.65;92.09;102874.00;5035592;28;20025;-88
2021/12/15 02:19:42;;;;;;;52.33;33.72;;;;;;;7.61;91.51;102879.94;5035240;28;19958;-84
2021/12/15 02:22:07;;;;;;;53.72;32.08;;;;;;;7.60;92.35;102873.84;5034871;28;20029;-84
2021/12/15 02:24:37;;;;;;;48.97;30.40;;;;;;;7.60;92.12;102879.06;5032615;28;20032;-86
2021/12/15 02:27:04;;;;;;;54.78;34.00;;;;;;;7.60;91.74;102886.91;5025045;28;20037;-86
2021/12/15 02:29:52;;;;;;;52.88;32.45;;;;;;;7.61;91.73;102878.25;5018510;28;20033;-88
2021/12/15 02:37:20;;;;;;;53.47;32.97;;;;;;;7.61;92.20;102883.47;5052008;28;20049;-87
2021/12/15 02:39:48;;;;;;;51.95;32.33;;;;;;;7.61;91.70;102878.25;5019189;28;20094;-88
2021/12/15 02:42:16;;;;;;;55.00;33.00;;;;;;;7.61;91.83;102878.25;5034261;28;20045;-87
2021/12/15 02:44:43;;;;;;;51.83;31.55;;;;;;;7.62;91.75;102877.38;5018935;28;20052;-88
2021/12/15 02:47:11;;;;;;;49.25;32.58;;;;;;;7.61;92.15;102878.25;5018404;28;20024;-88
2021/12/15 02:49:36;;;;;;;55.70;31.70;;;;;;;7.63;91.89;102876.56;5035013;28;20029;-87
2021/12/15 02:52:03;;;;;;;51.47;32.67;;;;;;;7.64;92.24;102874.84;5018745;28;20128;-89
2021/12/15 02:54:29;;;;;;;53.58;32.88;;;;;;;7.62;91.79;102879.13;5018819;28;20029;-86
2021/12/15 02:56:56;;;;;;;55.22;35.30;;;;;;;7.61;92.39;102873.03;5008737;28;20040;-85
2021/12/15 02:59:29;;;;;;;55.75;32.33;;;;;;;7.62;91.93;102873.91;5020152;28;20504;-83
2021/12/15 03:07:11;;;;;;;55.70;31.60;;;;;;;7.63;92.06;102871.34;5055455;28;20033;-89
2021/12/15 03:18:56;;;;;;;52.15;31.08;;;;;;;7.65;91.80;102867.91;5042170;28;20113;-91
2021/12/15 03:21:26;;;;;;;52.55;32.05;;;;;;;7.63;91.69;102873.97;5055922;28;20041;-89
2021/12/15 03:23:56;;;;;;;54.50;30.97;;;;;;;7.63;91.71;102876.56;5038215;28;20021;-88
2021/12/15 03:26:43;;;;;;;59.70;32.63;;;;;;;7.64;92.18;102867.00;5038642;28;20173;-89
2021/12/15 03:37:26;;;;;;;56.33;33.28;;;;;;;7.63;91.87;102870.47;5055123;28;20451;-91
2021/12/15 03:40:15;;;;;;;61.80;34.08;;;;;;;7.65;92.22;102867.91;5037842;28;20537;-85
2021/12/15 03:42:52;;;;;;;53.08;31.35;;;;;;;7.61;92.47;102870.44;5037596;28;20036;-90
2021/12/15 03:45:26;;;;;;;57.45;33.15;;;;;;;7.61;92.19;102867.81;5038581;28;20045;-90
2021/12/15 03:47:54;;;;;;;50.92;31.02;;;;;;;7.61;92.16;102865.19;5037682;28;20591;-91
2021/12/15 03:53:43;;;;;;;51.17;30.58;;;;;;;7.63;92.12;102876.56;5056139;28;20079;-88
2021/12/15 03:56:12;;;;;;;56.15;32.80;;;;;;;7.61;92.35;102873.03;5021615;28;20128;-85
2021/12/15 03:58:38;;;;;;;48.38;29.88;;;;;;;7.63;92.27;102875.69;5035038;28;20036;-87
2021/12/15 04:01:11;;;;;;;51.20;29.92;;;;;;;7.63;92.40;102883.53;5035039;28;20451;-85
2021/12/15 04:03:40;;;;;;;48.80;31.27;;;;;;;7.63;92.08;102881.78;5035067;28;20029;-85
2021/12/15 04:06:09;;;;;;;55.23;30.07;;;;;;;7.64;92.59;102882.66;5036227;28;20044;-89
2021/12/15 04:08:35;;;;;;;51.72;30.33;;;;;;;7.63;92.43;102879.16;5032758;28;20022;-87
2021/12/15 04:11:04;;;;;;;51.50;31.92;;;;;;;7.64;92.54;102893.09;5036824;28;20500;-88
2021/12/15 04:13:30;;;;;;;52.22;31.80;;;;;;;7.63;92.32;102889.59;5033320;28;20120;-87
2021/12/15 04:16:04;;;;;;;46.42;29.67;;;;;;;7.65;92.79;102891.41;5018102;28;20553;-87
2021/12/15 04:18:33;;;;;;;59.72;29.98;;;;;;;7.66;92.19;102890.53;5020799;28;20094;-86
2021/12/15 04:20:58;;;;;;;50.42;30.00;;;;;;;7.67;92.40;102894.94;5035186;28;20029;-86
2021/12/15 04:23:24;;;;;;;49.75;28.50;;;;;;;7.66;92.11;102886.22;5035404;28;20428;-86
2021/12/15 04:29:08;;;;;;;;;;;;;;;7.73;92.16;102892.50;4974160;28;20045;-84
2021/12/15 04:31:41;;;;;;;44.22;28.02;;;;;;;7.69;91.95;102891.53;5036404;28;19976;-84
2021/12/15 04:34:31;;;;;;;48.58;27.35;;;;;;;7.69;92.32;102888.06;5036696;28;20051;-84
2021/12/15 04:37:02;;;;;;;50.53;28.80;;;;;;;7.69;92.18;102888.06;5036768;28;20083;-84
2021/12/15 04:39:31;;;;;;;43.60;28.27;;;;;;;7.67;92.07;102888.00;5019770;28;20083;-86
2021/12/15 04:41:58;;;;;;;50.55;30.42;;;;;;;7.69;92.17;102895.88;5032871;28;20049;-84
2021/12/15 04:44:28;;;;;;;50.50;28.95;;;;;;;7.70;92.06;102897.63;5002360;28;20049;-89
2021/12/15 04:47:10;;;;;;;44.95;28.50;;;;;;;7.72;92.03;102895.97;5035100;28;20040;-87
2021/12/15 04:49:43;;;;;;;46.97;29.38;;;;;;;7.70;92.04;102895.94;5034875;28;20040;-89
2021/12/15 04:52:11;;;;;;;44.78;28.00;;;;;;;7.71;91.98;102899.41;5029477;28;20112;-87
2021/12/15 04:54:37;;;;;;;43.50;27.02;;;;;;;7.71;92.08;102897.69;5016502;28;20022;-90
2021/12/15 04:57:04;;;;;;;46.30;31.00;;;;;;;7.72;92.05;102903.81;5035004;28;20033;-89
2021/12/15 04:59:30;;;;;;;47.10;30.08;;;;;;;7.72;92.04;102903.81;5016182;28;20025;-88
2021/12/15 05:01:56;;;;;;;46.35;30.30;;;;;;;7.74;92.18;102909.94;5034021;28;20033;-91
2021/12/15 05:04:21;;;;;;;45.22;26.85;;;;;;;7.74;91.86;102908.25;5018195;28;20034;-89
2021/12/15 05:06:47;;;;;;;50.22;28.38;;;;;;;7.73;91.87;102911.69;5019469;28;20088;-92
2021/12/15 05:09:14;;;;;;;44.53;27.83;;;;;;;7.74;92.04;102909.94;5038071;28;20089;-92
2021/12/15 05:11:39;;;;;;;44.80;26.70;;;;;;;7.74;92.14;102913.47;5020530;28;20032;-88
2021/12/15 05:14:05;;;;;;;42.15;27.33;;;;;;;7.74;91.85;102909.94;5034983;28;20029;-92
2021/12/15 05:20:30;;;;;;;46.90;27.15;;;;;;;7.77;92.31;102913.56;5054441;28;20043;-93
2021/12/15 05:22:56;;;;;;;47.90;27.08;;;;;;;7.75;92.04;102915.22;5035369;28;20083;-91
2021/12/15 05:25:22;;;;;;;49.00;26.63;;;;;;;7.76;91.74;102918.75;5002893;28;20040;-90
2021/12/15 05:27:48;;;;;;;44.75;27.63;;;;;;;7.75;92.09;102924.78;5036396;28;20029;-92
2021/12/15 05:34:14;;;;;;;45.22;28.50;;;;;;;7.77;92.24;102920.50;5054140;28;20559;-91
2021/12/15 05:36:40;;;;;;;51.58;28.42;;;;;;;7.76;92.11;102918.75;5035073;28;20025;-90
2021/12/15 05:39:06;;;;;;;45.45;27.95;;;;;;;7.77;91.55;102923.09;5034242;28;20031;-89
2021/12/15 05:41:34;;;;;;;44.15;26.05;;;;;;;7.76;91.90;102923.97;5018648;28;20044;-92
2021/12/15 05:44:00;;;;;;;43.72;26.75;;;;;;;7.76;92.08;102927.44;5037617;28;20447;-89
2021/12/15 05:46:26;;;;;;;47.90;27.35;;;;;;;7.76;91.82;102930.06;5035066;28;20037;-89
2021/12/15 05:48:51;;;;;;;48.35;28.17;;;;;;;7.77;91.96;102925.72;5035192;28;20033;-91
2021/12/15 05:51:17;;;;;;;48.80;27.50;;;;;;;7.76;92.20;102930.06;5035997;28;20021;-92
2021/12/15 05:53:43;;;;;;;46.50;28.95;;;;;;;7.77;91.92;102925.72;5002766;28;20044;-92
2021/12/15 05:56:10;;;;;;;43.00;27.30;;;;;;;7.76;91.88;102930.06;5019226;28;20469;-91
2021/12/15 05:58:37;;;;;;;44.58;27.15;;;;;;;7.77;92.22;102928.31;5002692;28;20040;-93
2021/12/15 06:01:05;;;;;;;48.30;27.52;;;;;;;7.75;91.90;102927.41;5018986;28;20043;-90
2021/12/15 06:03:31;;;;;;;47.65;28.33;;;;;;;7.76;91.96;102931.78;5018539;28;20055;-91
2021/12/15 06:05:56;;;;;;;46.75;29.17;;;;;;;7.75;91.99;102927.41;5036307;28;20477;-91
2021/12/15 06:08:22;;;;;;;40.85;26.00;;;;;;;7.78;92.07;102933.59;5019424;28;20402;-89
2021/12/15 06:10:48;;;;;;;46.45;29.05;;;;;;;7.75;92.19;102937.84;5054297;28;20090;-90
2021/12/15 06:13:14;;;;;;;46.60;26.65;;;;;;;7.76;92.04;102934.41;5041449;28;20385;-86
2021/12/15 06:15:42;;;;;;;49.10;28.17;;;;;;;7.75;91.62;102933.50;5031722;28;20097;-84
2021/12/15 06:18:11;;;;;;;44.38;26.17;;;;;;;7.76;91.95;102934.41;5027131;28;20131;-85
2021/12/15 06:20:38;;;;;;;50.03;29.83;;;;;;;7.77;92.07;102943.97;5037561;28;20029;-85
2021/12/15 06:23:09;;;;;;;48.25;28.65;;;;;;;7.76;91.82;102939.63;5016106;28;20033;-89
2021/12/15 06:25:36;;;;;;;48.83;28.15;;;;;;;7.75;92.24;102940.44;5000196;28;20033;-85
2021/12/15 06:28:02;;;;;;;48.40;28.08;;;;;;;7.76;92.12;102950.94;5032413;28;20029;-84
2021/12/15 06:30:27;;;;;;;50.15;30.27;;;;;;;7.76;91.74;102944.84;4999240;28;20524;-86
2021/12/15 06:32:53;;;;;;;51.00;28.70;;;;;;;7.75;92.25;102949.16;5016549;28;20041;-86
2021/12/15 06:35:19;;;;;;;50.88;28.95;;;;;;;7.75;92.15;102943.94;5000197;28;20040;-84
2021/12/15 06:37:45;;;;;;;43.97;26.90;;;;;;;7.76;92.10;102950.94;5016588;28;20033;-85
2021/12/15 06:40:12;;;;;;;54.08;30.25;;;;;;;7.77;92.21;102951.81;5046643;28;20104;-83
2021/12/15 06:42:40;;;;;;;52.05;29.73;;;;;;;7.77;91.79;102946.59;5017806;28;20127;-90
2021/12/15 06:45:08;;;;;;;52.58;30.52;;;;;;;7.76;92.37;102953.53;5017667;28;20057;-89
2021/12/15 06:59:54;;;;;;;52.13;30.35;;;;;;;7.77;91.96;102954.41;5043780;28;20489;-86
2021/12/15 07:02:19;;;;;;;53.53;30.15;;;;;;;7.79;92.31;102956.25;5017407;28;20033;-88
2021/12/15 07:04:45;;;;;;;52.78;31.67;;;;;;;7.78;92.27;102961.41;5034638;28;20025;-89
2021/12/15 07:07:30;;;;;;;59.05;31.30;;;;;;;7.78;91.92;102962.28;5033922;28;20109;-91
2021/12/15 07:10:33;;;;;;;57.85;31.85;;;;;;;7.79;92.15;102961.47;5017843;28;20120;-89
2021/12/15 07:12:59;;;;;;;58.28;31.00;;;;;;;7.78;92.16;102964.03;5033381;28;20087;-86
2021/12/15 07:15:30;;;;;;;56.03;29.30;;;;;;;7.78;92.22;102970.13;5034601;28;20373;-89
2021/12/15 07:18:02;;;;;;;53.13;29.33;;;;;;;7.79;92.42;102978.88;5034235;28;20078;-90
2021/12/15 07:23:53;;;;;;;57.83;31.38;;;;;;;7.80;92.44;102970.19;5053511;28;20098;-92
2021/12/15 07:26:19;;;;;;;55.85;30.08;;;;;;;7.80;92.10;102972.78;5034924;28;20025;-92
2021/12/15 07:29:22;;;;;;;54.60;30.35;;;;;;;7.81;92.31;102985.00;5034433;28;20033;-91
2021/12/15 07:31:48;;;;;;;55.45;31.63;;;;;;;7.79;91.91;102978.88;5034510;28;20027;-91
2021/12/15 07:34:13;;;;;;;55.17;31.75;;;;;;;7.80;92.49;102983.22;5034058;28;20033;-87
2021/12/15 07:36:39;;;;;;;58.33;31.60;;;;;;;7.80;92.38;102976.31;5017947;28;20040;-85
2021/12/15 07:39:07;;;;;;;62.92;33.97;;;;;;;7.80;92.21;102983.22;5004126;28;20430;-87
2021/12/15 07:41:41;;;;;;;61.35;31.52;;;;;;;7.80;92.55;102981.53;5021672;28;20195;-88
2021/12/15 07:44:07;;;;;;;58.65;32.90;;;;;;;7.82;92.48;102986.78;5007005;28;20053;-86
2021/12/15 07:47:12;;;;;;;59.00;32.92;;;;;;;7.82;92.43;102978.09;5021542;28;20534;-91
2021/12/15 07:50:00;;;;;;;59.50;32.58;;;;;;;7.83;92.77;102985.06;5038524;28;20025;-87
2021/12/15 07:52:26;;;;;;;59.08;30.45;;;;;;;7.82;92.73;102986.78;5037833;28;20017;-89
2021/12/15 07:54:52;;;;;;;62.38;32.38;;;;;;;7.82;92.06;102986.78;5021205;28;20056;-87
2021/12/15 07:57:20;;;;;;;64.63;32.90;;;;;;;7.81;92.57;102995.44;5037482;28;20466;-87
2021/12/15 08:09:50;;;;;;;57.40;33.20;;;;;;;7.85;92.30;102994.72;5035960;28;20504;-90
2021/12/15 08:12:37;;;;;;;61.47;34.22;;;;;;;7.85;92.69;102997.34;5037789;28;20525;-90
2021/12/15 08:15:07;;;;;;;64.90;33.05;;;;;;;7.85;92.53;103001.69;5037265;28;20021;-89
2021/12/15 08:17:32;;;;;;;58.67;33.72;;;;;;;7.85;92.47;103012.13;5037400;28;20044;-88
2021/12/15 08:19:58;;;;;;;62.60;34.67;;;;;;;7.84;92.64;103000.78;5037665;28;20434;-90
2021/12/15 08:22:42;;;;;;;72.93;35.30;;;;;;;7.87;92.41;103000.88;5021081;28;20063;-89
2021/12/15 08:25:10;;;;;;;68.47;35.60;;;;;;;7.87;92.19;103006.09;5021182;28;20054;-88
2021/12/15 08:27:36;;;;;;;65.00;34.80;;;;;;;7.89;92.66;103008.78;5037544;28;20107;-88
2021/12/15 08:30:07;;;;;;;68.00;35.42;;;;;;;7.90;92.60;103000.09;5020774;28;20573;-88
2021/12/15 08:32:32;;;;;;;69.20;34.85;;;;;;;7.90;92.94;103000.09;5037606;28;20031;-89
2021/12/15 08:34:58;;;;;;;68.45;36.17;;;;;;;7.92;92.31;103008.88;5004722;28;20029;-89
2021/12/15 08:37:23;;;;;;;65.75;36.13;;;;;;;7.93;92.42;103010.63;5005022;28;20119;-90
2021/12/15 08:39:49;;;;;;;68.07;37.22;;;;;;;7.93;92.37;103015.84;5020477;28;20025;-88
2021/12/15 08:42:15;;;;;;;69.85;35.80;;;;;;;7.95;92.64;103014.22;5020926;28;20036;-89
2021/12/15 08:44:40;;;;;;;79.00;37.88;;;;;;;7.95;92.90;103015.09;5000426;28;20056;-90
2021/12/15 08:47:43;;;;;;;63.08;35.85;;;;;;;8.00;92.41;103016.97;5017416;28;20470;-89
2021/12/15 08:53:31;;;;;;;67.80;35.50;;;;;;;8.03;92.24;103011.84;5034993;28;20040;-89
2021/12/15 08:55:57;;;;;;;65.88;34.88;;;;;;;8.02;92.74;103016.19;5030005;28;20021;-89
2021/12/15 08:59:01;;;;;;;69.43;36.35;;;;;;;8.06;92.42;103017.16;5004068;28;20040;-90
2021/12/15 09:01:27;;;;;;;70.75;38.00;;;;;;;8.04;92.53;103016.25;5027289;28;20472;-88
2021/12/15 09:03:52;;;;;;;66.38;35.75;;;;;;;8.06;92.35;103014.56;5036163;28;20056;-88
2021/12/15 09:10:22;;;;;;;64.03;35.13;;;;;;;8.09;92.18;103023.41;5036446;28;20048;-90
2021/12/15 09:12:48;;;;;;;64.47;36.13;;;;;;;8.10;92.08;103034.72;5036386;28;20017;-89
2021/12/15 09:15:14;;;;;;;63.47;35.63;;;;;;;8.11;92.38;103021.72;5036512;28;20033;-88
2021/12/15 09:21:02;;;;;;;60.15;35.00;;;;;;;8.15;92.42;103027.94;5054344;28;20091;-87
2021/12/15 09:23:28;;;;;;;71.18;36.03;;;;;;;8.15;92.05;103031.44;5036298;28;20020;-90
2021/12/15 09:25:54;;;;;;;63.97;36.35;;;;;;;8.18;91.85;103032.38;5036509;28;20036;-87
2021/12/15 09:28:58;;;;;;;72.55;36.17;;;;;;;8.19;92.18;103037.66;5035977;28;20061;-89
2021/12/15 09:31:25;;;;;;;67.00;36.67;;;;;;;8.18;92.00;103046.31;5036252;28;20466;-89
2021/12/15 09:33:52;;;;;;;67.45;37.67;;;;;;;8.21;91.73;103041.19;5035952;28;20025;-89
2021/12/15 09:36:20;;;;;;;69.18;37.45;;;;;;;8.23;92.33;103047.38;5020032;28;20075;-90
2021/12/15 09:38:51;;;;;;;72.93;36.92;;;;;;;8.23;92.23;103047.38;5036058;28;20032;-90
2021/12/15 09:41:18;;;;;;;66.60;35.92;;;;;;;8.25;91.93;103040.47;5036155;28;20064;-89
2021/12/15 09:43:45;;;;;;;66.40;36.95;;;;;;;8.27;92.09;103045.72;5019435;28;20122;-89
2021/12/15 10:04:13;;;;;;;64.18;36.97;;;;;;;8.46;91.78;103058.59;5053635;28;20437;-88
2021/12/15 10:06:53;;;;;;;58.92;36.25;;;;;;;8.49;91.61;103049.94;5024438;28;20033;-86
2021/12/15 10:19:14;;;;;;;64.82;36.70;;;;;;;8.68;91.42;103054.06;5053221;28;20550;-88
2021/12/15 10:21:34;;;;;;;62.97;37.22;;;;;;;8.71;91.28;103056.78;5036001;28;20032;-88
2021/12/15 10:24:00;;;;;;;62.35;35.55;;;;;;;8.76;90.75;103055.16;5035729;28;20028;-89
2021/12/15 10:26:26;;;;;;;63.05;37.80;;;;;;;8.81;91.08;103061.44;5018742;28;20029;-90
2021/12/15 10:28:52;;;;;;;58.53;37.22;;;;;;;8.85;90.95;103054.59;5002964;28;20393;-91
2021/12/15 10:31:27;;;;;;;58.70;39.70;;;;;;;8.86;90.74;103061.59;5018613;28;20492;-88
2021/12/15 10:33:59;;;;;;;62.67;37.05;;;;;;;8.90;90.47;103058.22;5034565;28;20033;-87
2021/12/15 10:36:27;;;;;;;63.15;38.53;;;;;;;8.95;90.70;103056.66;5035171;28;20025;-87
2021/12/15 10:39:32;;;;;;;58.40;38.33;;;;;;;9.02;90.65;103056.00;5034956;28;20025;-94
2021/12/15 10:41:58;;;;;;;64.28;38.17;;;;;;;9.05;90.48;103057.81;5034731;28;20086;-87
2021/12/15 10:44:25;;;;;;;62.65;38.38;;;;;;;9.10;90.16;103055.34;5018336;28;20048;-89
2021/12/15 10:47:11;;;;;;;62.90;38.90;;;;;;;9.15;90.15;103061.56;5034556;28;20021;-88
2021/12/15 10:50:14;;;;;;;57.20;36.83;;;;;;;9.19;90.09;103053.88;5034623;28;20033;-87
2021/12/15 10:52:53;;;;;;;63.55;38.80;;;;;;;9.26;89.79;103057.56;5034439;28;20511;-89
2021/12/15 10:55:18;;;;;;;67.80;36.28;;;;;;;9.28;89.77;103055.88;5034960;28;20079;-88
2021/12/15 10:57:44;;;;;;;59.08;37.13;;;;;;;9.33;89.32;103056.88;5018687;28;20037;-88
2021/12/15 11:03:35;;;;;;;65.15;41.08;;;;;;;9.39;89.36;103073.63;5052382;28;20040;-89
2021/12/15 11:06:22;;;;;;;61.00;39.47;;;;;;;9.42;89.34;103064.13;5029171;28;20009;-89
2021/12/15 11:08:48;;;;;;;64.88;39.65;;;;;;;9.40;88.79;103060.56;5038919;28;20028;-88
2021/12/15 11:14:39;;;;;;;58.85;38.05;;;;;;;9.41;88.79;103062.38;5036791;28;20079;-87
2021/12/15 11:20:54;;;;;;;59.33;38.60;;;;;;;9.41;88.82;103051.91;5036573;28;20382;-89
2021/12/15 11:23:26;;;;;;;59.40;37.55;;;;;;;9.41;88.71;103058.84;5018763;28;20017;-88
2021/12/15 11:25:57;;;;;;;60.67;39.78;;;;;;;9.42;88.86;103058.88;5037168;28;20470;-92
2021/12/15 11:32:26;;;;;;;60.95;38.55;;;;;;;9.49;88.65;103052.97;5036724;28;20052;-86
2021/12/15 11:38:21;;;;;;;66.63;40.55;;;;;;;9.53;88.36;103046.13;5036833;28;20076;-89
2021/12/15 11:41:24;;;;;;;62.08;38.95;;;;;;;9.56;88.61;103051.44;5034880;28;20029;-89
2021/12/15 11:44:15;;;;;;;60.40;38.58;;;;;;;9.57;88.67;103042.75;5034238;28;20140;-90
2021/12/15 11:47:03;;;;;;;54.67;37.85;;;;;;;9.62;88.58;103042.84;5022885;28;20052;-88
2021/12/15 11:49:34;;;;;;;62.45;41.58;;;;;;;9.62;87.90;103046.34;5034547;28;20021;-91
2021/12/15 11:52:04;;;;;;;60.78;41.88;;;;;;;9.64;87.73;103054.25;5047375;28;20033;-88
2021/12/15 11:54:48;;;;;;;58.58;40.10;;;;;;;9.67;88.37;103044.75;5037587;28;20052;-88
2021/12/15 11:57:23;;;;;;;56.28;38.60;;;;;;;9.67;87.75;103044.75;5038007;28;20037;-92
2021/12/15 12:00:10;;;;;;;59.03;39.33;;;;;;;9.68;87.86;103041.31;5039853;28;20035;-89
2021/12/15 12:02:39;;;;;;;60.20;39.88;;;;;;;9.66;87.46;103037.75;5036653;28;20507;-88
2021/12/15 12:05:23;;;;;;;63.85;38.15;;;;;;;9.67;87.53;103029.06;5037444;28;20021;-89
2021/12/15 12:07:56;;;;;;;52.92;38.08;;;;;;;9.69;87.24;103029.09;5019172;28;20029;-90
2021/12/15 12:11:05;;;;;;;55.20;38.30;;;;;;;9.73;87.53;103030.06;5037072;28;20397;-88
2021/12/15 12:13:38;;;;;;;52.23;37.50;;;;;;;9.73;86.87;103030.06;5037237;28;20029;-87
2021/12/15 12:16:07;;;;;;;58.03;37.35;;;;;;;9.71;87.19;103025.69;5006264;28;20021;-88
2021/12/15 12:21:55;;;;;;;53.00;36.33;;;;;;;9.73;87.39;103027.47;5054919;28;20402;-87
2021/12/15 12:24:21;;;;;;;56.40;35.17;;;;;;;9.74;86.97;103029.22;5002207;28;20488;-87
2021/12/15 12:26:47;;;;;;;50.90;36.08;;;;;;;9.73;86.77;103030.06;5033411;28;20036;-88
2021/12/15 12:32:37;;;;;;;53.97;35.92;;;;;;;9.72;86.52;103026.56;5035083;28;20040;-87
2021/12/15 12:35:08;;;;;;;50.88;33.78;;;;;;;9.75;86.99;103024.00;5020209;28;20029;-87
2021/12/15 12:37:34;;;;;;;52.45;35.78;;;;;;;9.74;86.24;103018.72;5023171;28;20502;-86
2021/12/15 12:40:37;;;;;;;48.70;35.40;;;;;;;9.78;86.30;103016.22;5041051;28;20029;-88
2021/12/15 12:43:26;;;;;;;50.95;36.72;;;;;;;9.80;86.54;103017.19;5054217;28;20060;-88
2021/12/15 13:00:52;;;;;;;48.38;33.90;;;;;;;9.72;85.99;103005.59;5049751;28;20040;-86
2021/12/15 13:06:43;;;;;;;48.03;31.73;;;;;;;9.78;85.84;103010.13;5054405;28;20439;-87
2021/12/15 13:09:16;;;;;;;47.20;30.95;;;;;;;9.79;85.96;103004.03;5035776;28;20029;-87
2021/12/15 13:11:43;;;;;;;44.80;32.67;;;;;;;9.82;86.02;103004.13;5036314;28;20029;-87
2021/12/15 13:14:17;;;;;;;46.35;31.40;;;;;;;9.83;85.72;103001.53;5035367;28;20032;-87
2021/12/15 13:17:08;;;;;;;47.65;33.35;;;;;;;9.88;85.99;102996.41;5036214;28;20037;-88
2021/12/15 13:19:41;;;;;;;46.72;34.55;;;;;;;9.91;85.70;102996.47;5035680;28;20142;-86
2021/12/15 13:22:38;;;;;;;45.67;31.33;;;;;;;9.96;85.78;102997.50;5034890;28;20025;-88
2021/12/15 13:31:19;;;;;;;38.70;30.05;;;;;;;9.99;85.27;103008.06;5053669;28;20062;-87
2021/12/15 13:34:13;;;;;;;40.65;30.42;;;;;;;9.98;84.95;103002.78;5035143;28;20032;-87
2021/12/15 13:36:40;;;;;;;40.42;30.50;;;;;;;9.92;84.34;103007.88;5016302;28;20455;-88
2021/12/15 13:39:13;;;;;;;40.30;29.58;;;;;;;9.92;84.66;103013.09;5008506;28;20021;-87
2021/12/15 13:42:01;;;;;;;41.63;30.77;;;;;;;9.92;84.91;103003.50;5047974;28;20072;-88
2021/12/15 13:44:35;;;;;;;42.88;30.27;;;;;;;9.90;84.94;103013.06;5018804;28;20128;-87
2021/12/15 13:47:22;;;;;;;43.15;30.65;;;;;;;9.91;85.02;103011.31;5025588;28;20029;-87
2021/12/15 13:50:29;;;;;;;38.22;30.38;;;;;;;9.88;85.33;103012.13;5034261;28;20024;-85
2021/12/15 13:53:04;;;;;;;44.83;31.73;;;;;;;9.84;85.11;103019.03;5034598;28;20031;-87
2021/12/15 13:55:37;;;;;;;34.15;27.23;;;;;;;9.81;84.47;103020.66;5025106;28;20036;-87
2021/12/15 14:01:24;;;;;;;39.75;28.60;;;;;;;9.77;85.27;103013.56;5063222;28;20035;-87
2021/12/15 14:03:49;;;;;;;38.10;28.55;;;;;;;9.76;85.28;103025.78;5009563;28;20040;-88
2021/12/15 14:06:18;;;;;;;38.95;29.02;;;;;;;9.75;85.36;103025.75;5018292;28;20029;-87
2021/12/15 14:08:46;;;;;;;43.38;28.35;;;;;;;9.72;85.26;103026.56;5022166;28;20079;-87
2021/12/15 14:11:18;;;;;;;43.00;28.33;;;;;;;9.73;85.61;103024.84;5031244;28;20025;-86
2021/12/15 14:13:48;;;;;;;39.10;30.30;;;;;;;9.71;85.39;103030.00;5035353;28;20541;-86
2021/12/15 14:19:36;;;;;;;37.30;27.75;;;;;;;9.68;85.28;103019.47;5053393;28;20126;-87
2021/12/15 14:25:23;;;;;;;33.78;25.70;;;;;;;9.62;85.14;103022.78;5053127;28;20079;-88
2021/12/15 14:34:39;;;;;;;39.80;28.33;;;;;;;9.54;85.38;103026.94;5052268;28;20115;-87
2021/12/15 14:37:25;;;;;;;38.40;28.88;;;;;;;9.53;85.84;103038.25;5035228;28;20021;-88
2021/12/15 14:39:53;;;;;;;37.17;28.60;;;;;;;9.47;85.72;103031.13;5034841;28;20083;-86
2021/12/15 14:42:41;;;;;;;44.60;31.13;;;;;;;9.47;85.79;103033.75;5017352;28;20554;-86
2021/12/15 14:45:10;;;;;;;41.33;30.38;;;;;;;9.43;85.85;103025.75;5034568;28;20107;-88
2021/12/15 14:47:39;;;;;;;39.38;30.92;;;;;;;9.40;85.96;103031.78;5019304;28;20029;-89
2021/12/15 14:50:42;;;;;;;42.08;31.75;;;;;;;9.41;85.90;103041.44;5039432;28;20025;-86
2021/12/15 14:56:42;;;;;;;41.35;32.65;;;;;;;9.35;86.02;103052.59;5056332;28;20075;-83